Time,TemperatureF,DewpointF,PressureIn,WindDirection,WindDirectionDegrees,WindSpeedMPH,WindSpeedGustMPH,Humidity,HourlyPrecipIn,Conditions,Clouds,dailyrainin,SolarRadiationWatts/m^2,SoftwareType,DateUTC
2013-08-03 00:02:00,78.0,74.0,-100.00,SW,215,1.0,4.0,89,0.00,,,0.00,0.000000,,2013-08-03 04:02:00,
2013-08-03 00:33:00,77.0,74.0,-100.00,SSE,166,0.0,2.0,92,0.00,,,0.00,0.000000,,2013-08-03 04:33:00,
2013-08-03 00:43:00,77.0,74.0,-100.00,SSE,166,0.0,2.0,92,0.00,,,0.00,0.000000,,2013-08-03 04:43:00,
2013-08-03 00:53:00,77.0,74.0,-100.00,SSE,166,0.0,2.0,92,0.00,,,0.00,0.000000,,2013-08-03 04:53:00,
2013-08-03 01:02:00,77.0,74.0,-100.00,SSE,166,0.0,2.0,92,0.00,,,0.00,0.000000,,2013-08-03 05:02:00,
2013-08-03 01:32:00,76.0,74.0,-100.00,SW,232,1.0,1.0,94,0.00,,,0.00,0.000000,,2013-08-03 05:32:00,
2013-08-03 01:42:00,76.0,74.0,-100.00,SW,232,1.0,1.0,94,0.00,,,0.00,0.000000,,2013-08-03 05:42:00,
2013-08-03 01:52:00,76.0,74.0,-100.00,SW,232,1.0,1.0,94,0.00,,,0.00,0.000000,,2013-08-03 05:52:00,
2013-08-03 02:02:00,76.0,74.0,-100.00,SW,232,1.0,1.0,94,0.00,,,0.00,0.000000,,2013-08-03 06:02:00,
2013-08-03 02:33:00,75.0,73.0,-100.00,ENE,60,0.0,0.0,94,0.00,,,0.00,0.000000,,2013-08-03 06:33:00,
2013-08-03 02:42:00,75.0,73.0,-100.00,ENE,60,0.0,0.0,94,0.00,,,0.00,0.000000,,2013-08-03 06:42:00,
2013-08-03 02:52:00,75.0,73.0,-100.00,ENE,60,0.0,0.0,94,0.00,,,0.00,0.000000,,2013-08-03 06:52:00,
2013-08-03 03:02:00,75.0,73.0,-100.00,ENE,60,0.0,0.0,94,0.00,,,0.00,0.000000,,2013-08-03 07:02:00,
2013-08-03 03:22:00,75.0,73.0,-100.00,WSW,254,0.0,0.0,95,0.00,,,0.00,0.000000,,2013-08-03 07:22:00,
2013-08-03 03:32:00,75.0,73.0,-100.00,WSW,254,0.0,0.0,95,0.00,,,0.00,0.000000,,2013-08-03 07:32:00,
2013-08-03 03:43:00,75.0,73.0,-100.00,WSW,254,0.0,0.0,95,0.00,,,0.00,0.000000,,2013-08-03 07:43:00,
2013-08-03 03:53:00,75.0,73.0,-100.00,WSW,254,0.0,0.0,95,0.00,,,0.00,0.000000,,2013-08-03 07:53:00,
2013-08-03 04:02:00,75.0,73.0,-100.00,WSW,254,0.0,0.0,95,0.00,,,0.00,0.000000,,2013-08-03 08:02:00,
2013-08-03 04:22:00,74.0,72.0,-100.00,SSW,205,0.0,3.0,95,0.00,,,0.00,0.000000,,2013-08-03 08:22:00,
2013-08-03 04:32:00,74.0,72.0,-100.00,SSW,205,0.0,3.0,95,0.00,,,0.00,0.000000,,2013-08-03 08:32:00,
2013-08-03 04:43:00,74.0,72.0,-100.00,SSW,205,0.0,3.0,95,0.00,,,0.00,0.000000,,2013-08-03 08:43:00,
2013-08-03 04:52:00,74.0,72.0,-100.00,SSW,205,0.0,3.0,95,0.00,,,0.00,0.000000,,2013-08-03 08:52:00,
2013-08-03 05:02:00,74.0,72.0,-100.00,SSW,205,0.0,3.0,95,0.00,,,0.00,0.000000,,2013-08-03 09:02:00,
2013-08-03 05:22:00,74.0,72.0,-100.00,North,0,0.0,0.0,95,0.00,,,0.00,0.000000,,2013-08-03 09:22:00,
2013-08-03 05:32:00,74.0,72.0,-100.00,North,0,0.0,0.0,95,0.00,,,0.00,0.000000,,2013-08-03 09:32:00,
2013-08-03 05:43:00,74.0,72.0,-100.00,North,0,0.0,0.0,95,0.00,,,0.00,0.000000,,2013-08-03 09:43:00,
2013-08-03 05:53:00,74.0,72.0,-100.00,North,0,0.0,0.0,95,0.00,,,0.00,0.000000,,2013-08-03 09:53:00,
2013-08-03 06:02:00,74.0,72.0,-100.00,North,0,0.0,0.0,95,0.00,,,0.00,0.000000,,2013-08-03 10:02:00,
2013-08-03 06:33:00,73.0,71.0,-100.00,NW,318,0.0,0.0,95,0.00,,,0.00,0.000000,,2013-08-03 10:33:00,
2013-08-03 06:43:00,73.0,71.0,-100.00,NW,318,0.0,0.0,95,0.00,,,0.00,0.000000,,2013-08-03 10:43:00,
2013-08-03 06:53:00,73.0,71.0,-100.00,NW,318,0.0,0.0,95,0.00,,,0.00,0.000000,,2013-08-03 10:53:00,
2013-08-03 07:02:00,73.0,71.0,-100.00,NW,318,0.0,0.0,95,0.00,,,0.00,0.000000,,2013-08-03 11:02:00,
2013-08-03 07:32:00,73.0,71.0,-100.00,SE,143,0.0,0.0,95,0.00,,,0.00,2.000000,,2013-08-03 11:32:00,
2013-08-03 07:43:00,73.0,71.0,-100.00,SE,143,0.0,0.0,95,0.00,,,0.00,2.000000,,2013-08-03 11:43:00,
2013-08-03 07:53:00,73.0,71.0,-100.00,SE,143,0.0,0.0,95,0.00,,,0.00,2.000000,,2013-08-03 11:53:00,
2013-08-03 08:03:00,73.0,71.0,-100.00,SE,143,0.0,0.0,95,0.00,,,0.00,2.000000,,2013-08-03 12:03:00,
2013-08-03 08:33:00,78.0,76.0,-100.00,East,90,0.0,0.0,95,0.00,,,0.00,76.000000,,2013-08-03 12:33:00,
2013-08-03 08:43:00,78.0,76.0,-100.00,East,90,0.0,0.0,95,0.00,,,0.00,76.000000,,2013-08-03 12:43:00,
2013-08-03 08:53:00,78.0,76.0,-100.00,East,90,0.0,0.0,95,0.00,,,0.00,76.000000,,2013-08-03 12:53:00,
2013-08-03 09:02:00,78.0,76.0,-100.00,East,90,0.0,0.0,95,0.00,,,0.00,76.000000,,2013-08-03 13:02:00,
2013-08-03 09:33:00,82.0,74.0,-100.00,West,278,4.0,6.0,78,0.00,,,0.00,258.000000,,2013-08-03 13:33:00,
2013-08-03 09:43:00,82.0,74.0,-100.00,West,278,4.0,6.0,78,0.00,,,0.00,258.000000,,2013-08-03 13:43:00,
2013-08-03 09:52:00,82.0,74.0,-100.00,West,278,4.0,6.0,78,0.00,,,0.00,258.000000,,2013-08-03 13:52:00,
2013-08-03 10:02:00,82.0,74.0,-100.00,West,278,4.0,6.0,78,0.00,,,0.00,258.000000,,2013-08-03 14:02:00,
2013-08-03 10:33:00,85.0,76.0,-100.00,West,272,3.0,7.0,74,0.00,,,0.00,470.000000,,2013-08-03 14:33:00,
2013-08-03 10:43:00,85.0,76.0,-100.00,West,272,3.0,7.0,74,0.00,,,0.00,470.000000,,2013-08-03 14:43:00,
2013-08-03 10:52:00,85.0,76.0,-100.00,West,272,3.0,7.0,74,0.00,,,0.00,470.000000,,2013-08-03 14:52:00,
2013-08-03 11:02:00,85.0,76.0,-100.00,West,272,3.0,7.0,74,0.00,,,0.00,470.000000,,2013-08-03 15:02:00,
2013-08-03 11:23:00,88.0,77.0,-100.00,WNW,297,3.0,6.0,70,0.00,,,0.00,646.000000,,2013-08-03 15:23:00,
2013-08-03 11:32:00,88.0,77.0,-100.00,WNW,297,3.0,6.0,70,0.00,,,0.00,646.000000,,2013-08-03 15:32:00,
2013-08-03 11:43:00,88.0,77.0,-100.00,WNW,297,3.0,6.0,70,0.00,,,0.00,646.000000,,2013-08-03 15:43:00,
2013-08-03 11:53:00,88.0,77.0,-100.00,WNW,297,3.0,6.0,70,0.00,,,0.00,646.000000,,2013-08-03 15:53:00,
2013-08-03 12:02:00,88.0,77.0,-100.00,WNW,297,3.0,6.0,70,0.00,,,0.00,646.000000,,2013-08-03 16:02:00,
2013-08-03 12:23:00,91.0,78.0,-100.00,WNW,298,3.0,7.0,65,0.00,,,0.00,790.000000,,2013-08-03 16:23:00,
2013-08-03 12:33:00,91.0,78.0,-100.00,WNW,298,3.0,7.0,65,0.00,,,0.00,790.000000,,2013-08-03 16:33:00,
2013-08-03 12:43:00,91.0,78.0,-100.00,WNW,298,3.0,7.0,65,0.00,,,0.00,790.000000,,2013-08-03 16:43:00,
2013-08-03 12:53:00,91.0,78.0,-100.00,WNW,298,3.0,7.0,65,0.00,,,0.00,790.000000,,2013-08-03 16:53:00,
2013-08-03 13:03:00,91.0,78.0,-100.00,WNW,298,3.0,7.0,65,0.00,,,0.00,790.000000,,2013-08-03 17:03:00,
2013-08-03 13:22:00,93.0,77.0,-100.00,WNW,297,4.0,9.0,59,0.00,,,0.00,919.000000,,2013-08-03 17:22:00,
2013-08-03 13:32:00,93.0,77.0,-100.00,WNW,297,4.0,9.0,59,0.00,,,0.00,919.000000,,2013-08-03 17:32:00,
2013-08-03 13:43:00,93.0,77.0,-100.00,WNW,297,4.0,9.0,59,0.00,,,0.00,919.000000,,2013-08-03 17:43:00,
2013-08-03 13:52:00,93.0,77.0,-100.00,WNW,297,4.0,9.0,59,0.00,,,0.00,919.000000,,2013-08-03 17:52:00,
2013-08-03 14:02:00,93.0,77.0,-100.00,WNW,297,4.0,9.0,59,0.00,,,0.00,919.000000,,2013-08-03 18:02:00,
2013-08-03 14:22:00,94.0,76.0,-100.00,West,278,5.0,9.0,56,0.00,,,0.00,837.000000,,2013-08-03 18:22:00,
2013-08-03 14:32:00,94.0,76.0,-100.00,West,278,5.0,9.0,56,0.00,,,0.00,837.000000,,2013-08-03 18:32:00,
2013-08-03 14:43:00,94.0,76.0,-100.00,West,278,5.0,9.0,56,0.00,,,0.00,837.000000,,2013-08-03 18:43:00,
2013-08-03 14:53:00,94.0,76.0,-100.00,West,278,5.0,9.0,56,0.00,,,0.00,837.000000,,2013-08-03 18:53:00,
2013-08-03 15:03:00,94.0,76.0,-100.00,West,278,5.0,9.0,56,0.00,,,0.00,837.000000,,2013-08-03 19:03:00,
2013-08-03 15:22:00,95.0,75.0,-100.00,WNW,297,4.0,10.0,52,0.00,,,0.00,847.000000,,2013-08-03 19:22:00,
2013-08-03 15:32:00,95.0,75.0,-100.00,WNW,297,4.0,10.0,52,0.00,,,0.00,847.000000,,2013-08-03 19:32:00,
2013-08-03 15:43:00,95.0,75.0,-100.00,WNW,297,4.0,10.0,52,0.00,,,0.00,847.000000,,2013-08-03 19:43:00,
2013-08-03 15:53:00,95.0,75.0,-100.00,WNW,297,4.0,10.0,52,0.00,,,0.00,847.000000,,2013-08-03 19:53:00,
2013-08-03 16:02:00,95.0,75.0,-100.00,WNW,297,4.0,10.0,52,0.00,,,0.00,847.000000,,2013-08-03 20:02:00,
2013-08-03 16:22:00,95.0,70.0,-100.00,West,266,3.0,12.0,45,0.00,,,0.00,808.000000,,2013-08-03 20:22:00,
2013-08-03 16:32:00,95.0,70.0,-100.00,West,266,3.0,12.0,45,0.00,,,0.00,808.000000,,2013-08-03 20:32:00,
2013-08-03 16:42:00,95.0,70.0,-100.00,West,266,3.0,12.0,45,0.00,,,0.00,808.000000,,2013-08-03 20:42:00,
2013-08-03 16:52:00,95.0,70.0,-100.00,West,266,3.0,12.0,45,0.00,,,0.00,808.000000,,2013-08-03 20:52:00,
2013-08-03 17:02:00,95.0,70.0,-100.00,West,266,3.0,12.0,45,0.00,,,0.00,808.000000,,2013-08-03 21:02:00,
2013-08-03 17:22:00,92.0,71.0,-100.00,SW,234,2.0,6.0,50,0.00,,,0.00,488.000000,,2013-08-03 21:22:00,
2013-08-03 17:32:00,92.0,71.0,-100.00,SW,234,2.0,6.0,50,0.00,,,0.00,488.000000,,2013-08-03 21:32:00,
2013-08-03 17:42:00,92.0,71.0,-100.00,SW,234,2.0,6.0,50,0.00,,,0.00,488.000000,,2013-08-03 21:42:00,
2013-08-03 17:52:00,92.0,71.0,-100.00,SW,234,2.0,6.0,50,0.00,,,0.00,488.000000,,2013-08-03 21:52:00,
2013-08-03 18:02:00,92.0,71.0,-100.00,SW,234,2.0,6.0,50,0.00,,,0.00,488.000000,,2013-08-03 22:02:00,
2013-08-03 18:22:00,86.0,74.0,-100.00,NNW,337,2.0,7.0,68,0.00,,,0.00,152.000000,,2013-08-03 22:22:00,
2013-08-03 18:33:00,86.0,74.0,-100.00,NNW,337,2.0,7.0,68,0.00,,,0.00,152.000000,,2013-08-03 22:33:00,
2013-08-03 18:43:00,86.0,74.0,-100.00,NNW,337,2.0,7.0,68,0.00,,,0.00,152.000000,,2013-08-03 22:43:00,
2013-08-03 18:52:00,86.0,74.0,-100.00,NNW,337,2.0,7.0,68,0.00,,,0.00,152.000000,,2013-08-03 22:52:00,
2013-08-03 19:02:00,86.0,74.0,-100.00,NNW,337,2.0,7.0,68,0.00,,,0.00,152.000000,,2013-08-03 23:02:00,
2013-08-03 19:22:00,87.0,72.0,-100.00,SSE,165,1.0,4.0,61,0.00,,,0.00,231.000000,,2013-08-03 23:22:00,
2013-08-03 19:32:00,87.0,72.0,-100.00,SSE,165,1.0,4.0,61,0.00,,,0.00,231.000000,,2013-08-03 23:32:00,
2013-08-03 19:42:00,87.0,72.0,-100.00,SSE,165,1.0,4.0,61,0.00,,,0.00,231.000000,,2013-08-03 23:42:00,
2013-08-03 19:52:00,87.0,72.0,-100.00,SSE,165,1.0,4.0,61,0.00,,,0.00,231.000000,,2013-08-03 23:52:00,
2013-08-03 20:03:00,87.0,72.0,-100.00,SSE,165,1.0,4.0,61,0.00,,,0.00,231.000000,,2013-08-04 00:03:00,
2013-08-03 20:22:00,83.0,75.0,-100.00,NW,316,1.0,4.0,78,0.00,,,0.00,49.000000,,2013-08-04 00:22:00,
2013-08-03 20:32:00,83.0,75.0,-100.00,NW,316,1.0,4.0,78,0.00,,,0.00,49.000000,,2013-08-04 00:32:00,
2013-08-03 20:42:00,83.0,75.0,-100.00,NW,316,1.0,4.0,78,0.00,,,0.00,49.000000,,2013-08-04 00:42:00,
2013-08-03 20:53:00,83.0,75.0,-100.00,NW,316,1.0,4.0,78,0.00,,,0.00,49.000000,,2013-08-04 00:53:00,
2013-08-03 21:02:00,83.0,75.0,-100.00,NW,316,1.0,4.0,78,0.00,,,0.00,49.000000,,2013-08-04 01:02:00,
2013-08-03 21:22:00,81.0,76.0,-100.00,West,272,1.0,5.0,85,0.00,,,0.00,1.000000,,2013-08-04 01:22:00,
2013-08-03 21:32:00,81.0,76.0,-100.00,West,272,1.0,5.0,85,0.00,,,0.00,1.000000,,2013-08-04 01:32:00,
2013-08-03 21:42:00,81.0,76.0,-100.00,West,272,1.0,5.0,85,0.00,,,0.00,1.000000,,2013-08-04 01:42:00,
2013-08-03 21:53:00,81.0,76.0,-100.00,West,272,1.0,5.0,85,0.00,,,0.00,1.000000,,2013-08-04 01:53:00,
2013-08-03 22:03:00,81.0,76.0,-100.00,West,272,1.0,5.0,85,0.00,,,0.00,1.000000,,2013-08-04 02:03:00,
2013-08-03 22:22:00,80.0,76.0,-100.00,West,264,1.0,3.0,89,0.00,,,0.00,0.000000,,2013-08-04 02:22:00,
2013-08-03 22:32:00,80.0,76.0,-100.00,West,264,1.0,3.0,89,0.00,,,0.00,0.000000,,2013-08-04 02:32:00,
2013-08-03 22:42:00,80.0,76.0,-100.00,West,264,1.0,3.0,89,0.00,,,0.00,0.000000,,2013-08-04 02:42:00,
2013-08-03 22:52:00,80.0,76.0,-100.00,West,264,1.0,3.0,89,0.00,,,0.00,0.000000,,2013-08-04 02:52:00,
2013-08-03 23:02:00,80.0,76.0,-100.00,West,264,1.0,3.0,89,0.00,,,0.00,0.000000,,2013-08-04 03:02:00,
2013-08-03 23:22:00,79.0,76.0,-100.00,SE,133,1.0,4.0,91,0.00,,,0.00,0.000000,,2013-08-04 03:22:00,
2013-08-03 23:32:00,79.0,76.0,-100.00,SE,133,1.0,4.0,91,0.00,,,0.00,0.000000,,2013-08-04 03:32:00,
2013-08-03 23:42:00,79.0,76.0,-100.00,SE,133,1.0,4.0,91,0.00,,,0.00,0.000000,,2013-08-04 03:42:00,
2013-08-03 23:52:00,79.0,76.0,-100.00,SE,133,1.0,4.0,91,0.00,,,0.00,0.000000,,2013-08-04 03:52:00,